FFT1430 KEWR-KFLL
Flight info
| Callsign | FFT1430 |
|---|---|
| Flight time | 2h 44m |
| Altitude | 36000 |
| Route | ELVAE NECCK WHITE Q409 CRPLR PAACK Q97 PRMUS CUUDA3 |
| Aircraft | A320/M-SDE3FGHIRWY/LB1 |
Departure
| Time | 2026-05-04 00:12 |
|---|---|
| Airport | Newark Liberty International Airport (KEWR) |
Arrival
| Time | 2026-05-04 02:56 |
|---|---|
| Airport | Fort Lauderdale Hollywood International Airport (KFLL) |
| Time | Latitude | Longitude | Altitude | Speed | Heading |
|---|---|---|---|---|---|
| 2026-05-03 23:47 | 40.68721 | -74.17664 | 22 ft | 0 kts | 6° |
| 2026-05-03 23:59 | 40.68718 | -74.17664 | 4 ft | 2 kts | 7° |
| 2026-05-03 23:59 | 40.68702 | -74.17668 | 25 ft | 2 kts | 12° |
| 2026-05-03 23:59 | 40.68686 | -74.17673 | 24 ft | 2 kts | 18° |
| 2026-05-04 00:00 | 40.68671 | -74.17680 | 23 ft | 2 kts | 31° |
| 2026-05-04 00:00 | 40.68658 | -74.17693 | 22 ft | 2 kts | 62° |
| 2026-05-04 00:00 | 40.68654 | -74.17714 | 22 ft | 2 kts | 98° |
| 2026-05-04 00:00 | 40.68656 | -74.17729 | 22 ft | 1 kts | 109° |
| 2026-05-04 00:01 | 40.68657 | -74.17733 | 22 ft | 0 kts | 110° |
| 2026-05-04 00:03 | 40.68656 | -74.17732 | 22 ft | 0 kts | 110° |
| 2026-05-04 00:03 | 40.68656 | -74.17731 | 22 ft | 0 kts | 110° |
| 2026-05-04 00:04 | 40.68637 | -74.17670 | 23 ft | 17 kts | 113° |
| 2026-05-04 00:04 | 40.68588 | -74.17537 | 22 ft | 15 kts | 116° |
| 2026-05-04 00:04 | 40.68613 | -74.17432 | 25 ft | 12 kts | 39° |
| 2026-05-04 00:04 | 40.68678 | -74.17383 | 24 ft | 10 kts | 27° |
| 2026-05-04 00:05 | 40.68739 | -74.17343 | 23 ft | 9 kts | 24° |
| 2026-05-04 00:05 | 40.68796 | -74.17304 | 23 ft | 9 kts | 29° |
| 2026-05-04 00:05 | 40.68845 | -74.17270 | 23 ft | 8 kts | 15° |
| 2026-05-04 00:05 | 40.68891 | -74.17246 | 22 ft | 7 kts | 29° |
| 2026-05-04 00:06 | 40.68958 | -74.17202 | 22 ft | 16 kts | 27° |
| 2026-05-04 00:06 | 40.69053 | -74.17140 | 21 ft | 15 kts | 25° |
| 2026-05-04 00:06 | 40.69143 | -74.17080 | 22 ft | 13 kts | 27° |
| 2026-05-04 00:06 | 40.69216 | -74.17038 | 22 ft | 11 kts | 25° |
| 2026-05-04 00:07 | 40.69286 | -74.16994 | 22 ft | 12 kts | 26° |
| 2026-05-04 00:07 | 40.69365 | -74.16943 | 24 ft | 14 kts | 25° |
| 2026-05-04 00:07 | 40.69445 | -74.16893 | 23 ft | 12 kts | 26° |
| 2026-05-04 00:07 | 40.69517 | -74.16846 | 22 ft | 11 kts | 25° |
| 2026-05-04 00:08 | 40.69582 | -74.16805 | 23 ft | 10 kts | 25° |
| 2026-05-04 00:08 | 40.69642 | -74.16768 | 22 ft | 9 kts | 25° |
| 2026-05-04 00:08 | 40.69696 | -74.16734 | 22 ft | 8 kts | 25° |
| 2026-05-04 00:08 | 40.69747 | -74.16701 | 21 ft | 8 kts | 26° |
| 2026-05-04 00:09 | 40.69795 | -74.16670 | 21 ft | 7 kts | 25° |
| 2026-05-04 00:09 | 40.69848 | -74.16637 | 21 ft | 14 kts | 25° |
| 2026-05-04 00:09 | 40.69941 | -74.16577 | 22 ft | 14 kts | 26° |
| 2026-05-04 00:09 | 40.70026 | -74.16524 | 22 ft | 13 kts | 26° |
| 2026-05-04 00:10 | 40.70063 | -74.16472 | 23 ft | 0 kts | 76° |
| 2026-05-04 00:10 | 40.70064 | -74.16470 | 23 ft | 2 kts | 76° |
| 2026-05-04 00:11 | 40.70066 | -74.16402 | 20 ft | 9 kts | 95° |
| 2026-05-04 00:11 | 40.70031 | -74.16360 | 19 ft | 7 kts | 176° |
| 2026-05-04 00:11 | 40.69970 | -74.16401 | 19 ft | 27 kts | 205° |
| 2026-05-04 00:11 | 40.69508 | -74.16695 | 23 ft | 116 kts | 205° |
| 2026-05-04 00:12 | 40.68573 | -74.17311 | 192 ft | 170 kts | 207° |
| 2026-05-04 00:12 | 40.67428 | -74.17919 | 731 ft | 182 kts | 195° |
| 2026-05-04 00:12 | 40.66149 | -74.18028 | 1412 ft | 188 kts | 179° |
| 2026-05-04 00:12 | 40.64835 | -74.17909 | 1985 ft | 192 kts | 198° |
| 2026-05-04 00:13 | 40.63713 | -74.18823 | 2361 ft | 200 kts | 234° |
| 2026-05-04 00:13 | 40.62764 | -74.20311 | 2791 ft | 226 kts | 231° |
| 2026-05-04 00:13 | 40.61500 | -74.21737 | 3340 ft | 249 kts | 221° |
| 2026-05-04 00:13 | 40.60052 | -74.23055 | 4188 ft | 257 kts | 219° |
| 2026-05-04 00:14 | 40.58537 | -74.24347 | 5118 ft | 262 kts | 218° |
| 2026-05-04 00:14 | 40.56962 | -74.25659 | 6048 ft | 268 kts | 214° |
| 2026-05-04 00:14 | 40.55178 | -74.26526 | 6902 ft | 281 kts | 196° |
| 2026-05-04 00:14 | 40.53186 | -74.26647 | 7713 ft | 295 kts | 177° |
| 2026-05-04 00:15 | 40.51189 | -74.25941 | 8505 ft | 306 kts | 162° |
| 2026-05-04 00:15 | 40.49161 | -74.24922 | 9348 ft | 311 kts | 162° |
| 2026-05-04 00:15 | 40.47119 | -74.23903 | 10119 ft | 317 kts | 161° |
| 2026-05-04 00:15 | 40.45017 | -74.22859 | 10507 ft | 338 kts | 161° |
| 2026-05-04 00:16 | 40.42737 | -74.21734 | 10773 ft | 362 kts | 161° |
| 2026-05-04 00:16 | 40.40313 | -74.20542 | 11155 ft | 378 kts | 161° |
| 2026-05-04 00:16 | 40.37836 | -74.19317 | 11846 ft | 384 kts | 161° |
| 2026-05-04 00:16 | 40.35325 | -74.18071 | 12576 ft | 388 kts | 162° |
| 2026-05-04 00:17 | 40.32715 | -74.17121 | 13322 ft | 389 kts | 172° |
| 2026-05-04 00:17 | 40.30021 | -74.16807 | 14020 ft | 389 kts | 184° |
| 2026-05-04 00:17 | 40.27338 | -74.17147 | 14700 ft | 387 kts | 195° |
| 2026-05-04 00:17 | 40.24712 | -74.17937 | 15391 ft | 387 kts | 198° |
| 2026-05-04 00:18 | 40.22098 | -74.18735 | 16154 ft | 387 kts | 198° |
| 2026-05-04 00:18 | 40.19473 | -74.19526 | 16859 ft | 388 kts | 198° |
| 2026-05-04 00:18 | 40.16837 | -74.20314 | 17538 ft | 389 kts | 198° |
| 2026-05-04 00:18 | 40.14187 | -74.21103 | 18203 ft | 391 kts | 198° |
| 2026-05-04 00:19 | 40.11528 | -74.21892 | 18761 ft | 393 kts | 198° |
| 2026-05-04 00:19 | 40.08853 | -74.22686 | 19308 ft | 395 kts | 198° |
| 2026-05-04 00:19 | 40.06166 | -74.23486 | 19778 ft | 400 kts | 199° |
| 2026-05-04 00:19 | 40.03452 | -74.24317 | 20307 ft | 399 kts | 201° |
| 2026-05-04 00:20 | 40.01679 | -74.25072 | 20710 ft | 394 kts | 208° |
| 2026-05-04 00:20 | 39.99230 | -74.26618 | 21268 ft | 389 kts | 217° |
| 2026-05-04 00:20 | 39.97032 | -74.28593 | 21783 ft | 387 kts | 222° |
| 2026-05-04 00:20 | 39.94846 | -74.30702 | 22306 ft | 389 kts | 222° |
| 2026-05-04 00:21 | 39.92660 | -74.32794 | 22808 ft | 391 kts | 222° |
| 2026-05-04 00:21 | 39.90458 | -74.34889 | 23313 ft | 393 kts | 222° |
| 2026-05-04 00:21 | 39.88244 | -74.36993 | 23755 ft | 395 kts | 222° |
| 2026-05-04 00:21 | 39.86014 | -74.39104 | 24135 ft | 398 kts | 222° |
| 2026-05-04 00:22 | 39.83769 | -74.41227 | 24487 ft | 400 kts | 223° |
| 2026-05-04 00:22 | 39.81577 | -74.43434 | 24894 ft | 396 kts | 228° |
| 2026-05-04 00:22 | 39.79629 | -74.45945 | 25287 ft | 394 kts | 232° |
| 2026-05-04 00:22 | 39.77710 | -74.48511 | 25673 ft | 396 kts | 232° |
| 2026-05-04 00:23 | 39.75757 | -74.51114 | 26057 ft | 398 kts | 232° |
| 2026-05-04 00:23 | 39.73839 | -74.53656 | 26428 ft | 400 kts | 232° |
| 2026-05-04 00:23 | 39.71855 | -74.56279 | 26812 ft | 402 kts | 232° |
| 2026-05-04 00:23 | 39.69891 | -74.58873 | 27174 ft | 404 kts | 232° |
| 2026-05-04 00:24 | 39.67921 | -74.61478 | 27524 ft | 405 kts | 232° |
| 2026-05-04 00:24 | 39.65939 | -74.64096 | 27863 ft | 407 kts | 232° |
| 2026-05-04 00:24 | 39.63949 | -74.66719 | 28200 ft | 409 kts | 232° |
| 2026-05-04 00:24 | 39.61950 | -74.69354 | 28521 ft | 411 kts | 232° |
| 2026-05-04 00:25 | 39.59944 | -74.71998 | 28844 ft | 412 kts | 232° |
| 2026-05-04 00:25 | 39.57926 | -74.74660 | 29155 ft | 414 kts | 233° |
| 2026-05-04 00:25 | 39.55906 | -74.77326 | 29463 ft | 416 kts | 233° |
| 2026-05-04 00:25 | 39.53882 | -74.79989 | 29881 ft | 415 kts | 233° |
| 2026-05-04 00:26 | 39.51859 | -74.82642 | 30308 ft | 413 kts | 233° |
| 2026-05-04 00:26 | 39.49842 | -74.85289 | 30666 ft | 412 kts | 233° |
| 2026-05-04 00:26 | 39.47835 | -74.87918 | 31001 ft | 410 kts | 233° |
| 2026-05-04 00:26 | 39.45829 | -74.90537 | 31400 ft | 408 kts | 233° |
| 2026-05-04 00:27 | 39.43835 | -74.93141 | 31786 ft | 406 kts | 233° |
| 2026-05-04 00:27 | 39.41853 | -74.95732 | 32169 ft | 405 kts | 233° |
| 2026-05-04 00:27 | 39.39877 | -74.98316 | 32554 ft | 403 kts | 233° |
| 2026-05-04 00:27 | 39.37911 | -75.00885 | 32910 ft | 402 kts | 233° |
| 2026-05-04 00:28 | 39.35944 | -75.03452 | 33309 ft | 401 kts | 233° |
| 2026-05-04 00:28 | 39.33984 | -75.06001 | 33677 ft | 400 kts | 233° |
| 2026-05-04 00:28 | 39.32029 | -75.08541 | 34074 ft | 397 kts | 233° |
| 2026-05-04 00:28 | 39.30086 | -75.11060 | 34401 ft | 396 kts | 233° |
| 2026-05-04 00:29 | 39.28135 | -75.13563 | 34664 ft | 395 kts | 232° |
| 2026-05-04 00:29 | 39.26171 | -75.16041 | 34968 ft | 394 kts | 232° |
| 2026-05-04 00:29 | 39.24206 | -75.18495 | 35249 ft | 394 kts | 231° |
| 2026-05-04 00:29 | 39.22236 | -75.20948 | 35483 ft | 394 kts | 231° |
| 2026-05-04 00:30 | 39.20242 | -75.23431 | 35706 ft | 394 kts | 231° |
| 2026-05-04 00:30 | 39.18273 | -75.25887 | 35936 ft | 394 kts | 231° |
| 2026-05-04 00:30 | 39.14322 | -75.30818 | 36019 ft | 396 kts | 231° |
| 2026-05-04 00:31 | 39.10361 | -75.35745 | 36018 ft | 396 kts | 231° |
| 2026-05-04 00:31 | 39.06349 | -75.40587 | 36018 ft | 399 kts | 225° |
| 2026-05-04 00:32 | 39.03987 | -75.42550 | 36017 ft | 411 kts | 216° |
| 2026-05-04 00:32 | 39.01296 | -75.43930 | 36019 ft | 424 kts | 205° |
| 2026-05-04 00:32 | 38.98342 | -75.44624 | 36020 ft | 438 kts | 196° |
| 2026-05-04 00:32 | 38.95311 | -75.45028 | 36021 ft | 438 kts | 196° |
| 2026-05-04 00:33 | 38.86218 | -75.46262 | 36011 ft | 438 kts | 197° |
| 2026-05-04 00:34 | 38.80160 | -75.47093 | 36038 ft | 437 kts | 197° |
| 2026-05-04 00:34 | 38.74070 | -75.47934 | 36052 ft | 437 kts | 197° |
| 2026-05-04 00:35 | 38.68023 | -75.48770 | 36059 ft | 437 kts | 197° |
| 2026-05-04 00:35 | 38.61985 | -75.49591 | 36041 ft | 436 kts | 197° |
| 2026-05-04 00:36 | 38.55903 | -75.50419 | 36061 ft | 436 kts | 197° |
| 2026-05-04 00:36 | 38.49872 | -75.51233 | 36069 ft | 436 kts | 197° |
| 2026-05-04 00:37 | 38.43843 | -75.52044 | 36019 ft | 435 kts | 197° |
| 2026-05-04 00:37 | 38.37830 | -75.52880 | 36050 ft | 430 kts | 200° |
| 2026-05-04 00:37 | 38.34965 | -75.53725 | 36058 ft | 417 kts | 208° |
| 2026-05-04 00:38 | 38.32301 | -75.55067 | 36070 ft | 405 kts | 217° |
| 2026-05-04 00:38 | 38.27644 | -75.58830 | 36069 ft | 394 kts | 224° |
| 2026-05-04 00:39 | 38.23124 | -75.62791 | 36035 ft | 395 kts | 224° |
| 2026-05-04 00:39 | 38.18556 | -75.66757 | 36057 ft | 395 kts | 223° |
| 2026-05-04 00:40 | 38.14022 | -75.70691 | 36070 ft | 394 kts | 223° |
| 2026-05-04 00:40 | 38.09496 | -75.74622 | 36077 ft | 394 kts | 224° |
| 2026-05-04 00:41 | 38.04969 | -75.78552 | 36084 ft | 394 kts | 223° |
| 2026-05-04 00:41 | 38.00409 | -75.82490 | 36062 ft | 394 kts | 223° |
| 2026-05-04 00:42 | 37.95886 | -75.86391 | 36077 ft | 393 kts | 223° |
| 2026-05-04 00:42 | 37.91363 | -75.90291 | 36089 ft | 393 kts | 223° |
| 2026-05-04 00:43 | 37.86840 | -75.94181 | 36092 ft | 393 kts | 223° |
| 2026-05-04 00:43 | 37.82293 | -75.98090 | 36094 ft | 393 kts | 223° |
| 2026-05-04 00:44 | 37.77776 | -76.01966 | 36074 ft | 392 kts | 223° |
| 2026-05-04 00:44 | 37.73261 | -76.05824 | 36089 ft | 391 kts | 223° |
| 2026-05-04 00:45 | 37.68752 | -76.09681 | 36095 ft | 391 kts | 223° |
| 2026-05-04 00:45 | 37.64247 | -76.13529 | 36102 ft | 391 kts | 223° |
| 2026-05-04 00:46 | 37.59671 | -76.17264 | 36104 ft | 397 kts | 217° |
| 2026-05-04 00:46 | 37.54783 | -76.20520 | 36105 ft | 398 kts | 217° |
| 2026-05-04 00:47 | 37.49878 | -76.23777 | 36104 ft | 398 kts | 217° |
| 2026-05-04 00:47 | 37.45804 | -76.26485 | 36103 ft | 398 kts | 217° |
| 2026-05-04 00:48 | 37.40871 | -76.29768 | 36099 ft | 398 kts | 217° |
| 2026-05-04 00:48 | 37.35972 | -76.33020 | 36077 ft | 398 kts | 217° |
| 2026-05-04 00:49 | 37.31074 | -76.36256 | 36082 ft | 398 kts | 217° |
| 2026-05-04 00:49 | 37.26145 | -76.39512 | 36098 ft | 397 kts | 217° |
| 2026-05-04 00:50 | 37.21260 | -76.42737 | 36103 ft | 397 kts | 217° |
| 2026-05-04 00:50 | 37.16366 | -76.45962 | 36056 ft | 397 kts | 217° |
| 2026-05-04 00:51 | 37.11476 | -76.49178 | 36071 ft | 396 kts | 217° |
| 2026-05-04 00:51 | 37.06594 | -76.52387 | 36110 ft | 396 kts | 217° |
| 2026-05-04 00:52 | 37.01705 | -76.55590 | 36088 ft | 396 kts | 217° |
| 2026-05-04 00:52 | 36.96818 | -76.58787 | 36099 ft | 397 kts | 217° |
| 2026-05-04 00:53 | 36.91935 | -76.61983 | 36069 ft | 396 kts | 216° |
| 2026-05-04 00:53 | 36.87011 | -76.65200 | 36083 ft | 396 kts | 216° |
| 2026-05-04 00:54 | 36.82123 | -76.68389 | 36108 ft | 396 kts | 216° |
| 2026-05-04 00:54 | 36.77233 | -76.71577 | 36116 ft | 396 kts | 216° |
| 2026-05-04 00:55 | 36.72346 | -76.74755 | 36087 ft | 396 kts | 216° |
| 2026-05-04 00:55 | 36.67464 | -76.77926 | 36103 ft | 396 kts | 216° |
| 2026-05-04 00:56 | 36.62584 | -76.81090 | 36107 ft | 395 kts | 216° |
| 2026-05-04 00:56 | 36.57701 | -76.84242 | 36108 ft | 395 kts | 216° |
| 2026-05-04 00:57 | 36.52825 | -76.87394 | 36102 ft | 395 kts | 216° |
| 2026-05-04 00:57 | 36.47944 | -76.90550 | 36068 ft | 395 kts | 216° |
| 2026-05-04 00:58 | 36.43062 | -76.93701 | 36102 ft | 395 kts | 216° |
| 2026-05-04 00:58 | 36.38161 | -76.96865 | 36108 ft | 395 kts | 216° |
| 2026-05-04 00:59 | 36.33289 | -76.99995 | 36118 ft | 394 kts | 216° |
| 2026-05-04 00:59 | 36.28419 | -77.03121 | 36117 ft | 394 kts | 216° |
| 2026-05-04 01:00 | 36.23553 | -77.06246 | 36094 ft | 393 kts | 215° |
| 2026-05-04 01:00 | 36.18692 | -77.09355 | 36112 ft | 393 kts | 215° |
| 2026-05-04 01:01 | 36.13828 | -77.12456 | 36116 ft | 393 kts | 215° |
| 2026-05-04 01:01 | 36.08938 | -77.15564 | 36118 ft | 392 kts | 216° |
| 2026-05-04 01:02 | 36.04087 | -77.18664 | 36073 ft | 392 kts | 216° |
| 2026-05-04 01:02 | 35.99249 | -77.21757 | 36099 ft | 391 kts | 215° |
| 2026-05-04 01:03 | 35.94377 | -77.24850 | 36110 ft | 391 kts | 215° |
| 2026-05-04 01:03 | 35.89966 | -77.28573 | 36109 ft | 382 kts | 224° |
| 2026-05-04 01:04 | 35.85782 | -77.32625 | 36095 ft | 383 kts | 224° |
| 2026-05-04 01:04 | 35.81588 | -77.36670 | 36074 ft | 382 kts | 224° |
| 2026-05-04 01:05 | 35.77399 | -77.40703 | 36093 ft | 382 kts | 224° |
| 2026-05-04 01:05 | 35.73217 | -77.44730 | 36100 ft | 381 kts | 224° |
| 2026-05-04 01:06 | 35.69045 | -77.48750 | 36102 ft | 381 kts | 224° |
| 2026-05-04 01:06 | 35.64863 | -77.52754 | 36110 ft | 381 kts | 224° |
| 2026-05-04 01:07 | 35.60658 | -77.56780 | 36104 ft | 381 kts | 224° |
| 2026-05-04 01:07 | 35.56493 | -77.60766 | 36092 ft | 379 kts | 224° |
| 2026-05-04 01:08 | 35.52333 | -77.64752 | 36097 ft | 379 kts | 224° |
| 2026-05-04 01:08 | 35.48166 | -77.68722 | 36098 ft | 379 kts | 224° |
| 2026-05-04 01:09 | 35.43997 | -77.72691 | 36097 ft | 379 kts | 224° |
| 2026-05-04 01:09 | 35.39832 | -77.76663 | 36095 ft | 379 kts | 224° |
| 2026-05-04 01:10 | 35.35664 | -77.80628 | 36102 ft | 379 kts | 224° |
| 2026-05-04 01:10 | 35.31486 | -77.84579 | 36089 ft | 380 kts | 224° |
| 2026-05-04 01:11 | 35.27308 | -77.88537 | 36086 ft | 380 kts | 224° |
| 2026-05-04 01:11 | 35.23105 | -77.92522 | 36096 ft | 380 kts | 224° |
| 2026-05-04 01:12 | 35.18923 | -77.96470 | 36094 ft | 380 kts | 223° |
| 2026-05-04 01:12 | 35.14730 | -78.00422 | 36078 ft | 381 kts | 223° |
| 2026-05-04 01:13 | 35.10534 | -78.04372 | 36101 ft | 381 kts | 223° |
| 2026-05-04 01:13 | 35.06340 | -78.08321 | 36111 ft | 381 kts | 223° |
| 2026-05-04 01:14 | 35.02149 | -78.12277 | 36107 ft | 381 kts | 224° |
| 2026-05-04 01:14 | 34.98664 | -78.15561 | 36111 ft | 381 kts | 223° |
| 2026-05-04 01:15 | 34.94435 | -78.19529 | 36109 ft | 381 kts | 223° |
| 2026-05-04 01:15 | 34.90226 | -78.23461 | 36085 ft | 381 kts | 223° |
| 2026-05-04 01:16 | 34.86025 | -78.27380 | 36101 ft | 380 kts | 223° |
| 2026-05-04 01:16 | 34.81831 | -78.31297 | 36102 ft | 380 kts | 223° |
| 2026-05-04 01:17 | 34.77636 | -78.35216 | 36100 ft | 380 kts | 223° |
| 2026-05-04 01:17 | 34.73445 | -78.39127 | 36109 ft | 380 kts | 223° |
| 2026-05-04 01:18 | 34.69244 | -78.43029 | 36088 ft | 380 kts | 223° |
| 2026-05-04 01:18 | 34.65052 | -78.46922 | 36107 ft | 379 kts | 223° |
| 2026-05-04 01:19 | 34.60862 | -78.50814 | 36125 ft | 379 kts | 223° |
| 2026-05-04 01:19 | 34.56668 | -78.54699 | 36128 ft | 379 kts | 223° |
| 2026-05-04 01:20 | 34.52484 | -78.58578 | 36129 ft | 379 kts | 223° |
| 2026-05-04 01:20 | 34.48299 | -78.62452 | 36127 ft | 378 kts | 223° |
| 2026-05-04 01:21 | 34.44083 | -78.66341 | 36103 ft | 378 kts | 223° |
| 2026-05-04 01:21 | 34.39895 | -78.70185 | 36134 ft | 378 kts | 223° |
| 2026-05-04 01:22 | 34.35586 | -78.73874 | 36133 ft | 380 kts | 220° |
| 2026-05-04 01:22 | 34.31200 | -78.77464 | 36103 ft | 381 kts | 220° |
| 2026-05-04 01:23 | 34.26823 | -78.81068 | 36105 ft | 381 kts | 221° |
| 2026-05-04 01:23 | 34.22459 | -78.84696 | 36063 ft | 381 kts | 221° |
| 2026-05-04 01:24 | 34.18102 | -78.88320 | 36092 ft | 380 kts | 221° |
| 2026-05-04 01:24 | 34.13755 | -78.91937 | 36106 ft | 379 kts | 221° |
| 2026-05-04 01:25 | 34.09388 | -78.95569 | 36121 ft | 379 kts | 221° |
| 2026-05-04 01:25 | 34.05054 | -78.99166 | 36130 ft | 378 kts | 221° |
| 2026-05-04 01:26 | 34.00714 | -79.02761 | 36144 ft | 378 kts | 221° |
| 2026-05-04 01:26 | 33.96376 | -79.06347 | 36148 ft | 378 kts | 220° |
| 2026-05-04 01:27 | 33.92046 | -79.09928 | 36148 ft | 378 kts | 220° |
| 2026-05-04 01:27 | 33.87706 | -79.13511 | 36146 ft | 378 kts | 220° |
| 2026-05-04 01:28 | 33.83364 | -79.17089 | 36146 ft | 379 kts | 220° |
| 2026-05-04 01:28 | 33.79017 | -79.20667 | 36146 ft | 379 kts | 220° |
| 2026-05-04 01:29 | 33.74670 | -79.24244 | 36133 ft | 379 kts | 220° |
| 2026-05-04 01:29 | 33.70326 | -79.27814 | 36129 ft | 378 kts | 220° |
| 2026-05-04 01:30 | 33.65987 | -79.31380 | 36130 ft | 377 kts | 220° |
| 2026-05-04 01:30 | 33.61712 | -79.35012 | 36140 ft | 376 kts | 221° |
| 2026-05-04 01:31 | 33.57427 | -79.38688 | 36144 ft | 376 kts | 221° |
| 2026-05-04 01:31 | 33.53158 | -79.42311 | 36150 ft | 376 kts | 220° |
| 2026-05-04 01:32 | 33.48886 | -79.45934 | 36120 ft | 376 kts | 220° |
| 2026-05-04 01:32 | 33.44609 | -79.49565 | 36129 ft | 377 kts | 220° |
| 2026-05-04 01:33 | 33.40329 | -79.53182 | 36136 ft | 377 kts | 220° |
| 2026-05-04 01:33 | 33.36038 | -79.56796 | 36136 ft | 377 kts | 220° |
| 2026-05-04 01:34 | 33.31745 | -79.60411 | 36136 ft | 377 kts | 220° |
| 2026-05-04 01:34 | 33.27459 | -79.64025 | 36134 ft | 377 kts | 220° |
| 2026-05-04 01:35 | 33.23165 | -79.67637 | 36100 ft | 377 kts | 220° |
| 2026-05-04 01:35 | 33.18869 | -79.71238 | 36114 ft | 377 kts | 220° |
| 2026-05-04 01:36 | 33.14579 | -79.74840 | 36132 ft | 377 kts | 220° |
| 2026-05-04 01:36 | 33.10285 | -79.78443 | 36137 ft | 377 kts | 220° |
| 2026-05-04 01:37 | 33.05994 | -79.82024 | 36176 ft | 375 kts | 220° |
| 2026-05-04 01:37 | 33.01714 | -79.85596 | 36162 ft | 377 kts | 220° |
| 2026-05-04 01:38 | 32.97420 | -79.89183 | 36146 ft | 377 kts | 220° |
| 2026-05-04 01:38 | 32.93116 | -79.92774 | 36137 ft | 378 kts | 220° |
| 2026-05-04 01:39 | 32.88781 | -79.96390 | 36136 ft | 378 kts | 220° |
| 2026-05-04 01:39 | 32.84468 | -79.99981 | 36138 ft | 379 kts | 220° |
| 2026-05-04 01:40 | 32.80144 | -80.03570 | 36140 ft | 379 kts | 220° |
| 2026-05-04 01:40 | 32.75819 | -80.07155 | 36105 ft | 379 kts | 220° |
| 2026-05-04 01:41 | 32.71498 | -80.10739 | 36132 ft | 379 kts | 220° |
| 2026-05-04 01:41 | 32.67178 | -80.14314 | 36143 ft | 379 kts | 220° |
| 2026-05-04 01:42 | 32.62855 | -80.17883 | 36163 ft | 379 kts | 220° |
| 2026-05-04 01:42 | 32.58528 | -80.21456 | 36150 ft | 379 kts | 220° |
| 2026-05-04 01:43 | 32.54193 | -80.25033 | 36141 ft | 380 kts | 220° |
| 2026-05-04 01:43 | 32.49681 | -80.28338 | 36107 ft | 384 kts | 214° |
| 2026-05-04 01:44 | 32.44965 | -80.31318 | 36111 ft | 384 kts | 214° |
| 2026-05-04 01:44 | 32.40250 | -80.34301 | 36121 ft | 384 kts | 214° |
| 2026-05-04 01:45 | 32.35537 | -80.37280 | 36132 ft | 384 kts | 214° |
| 2026-05-04 01:45 | 32.28466 | -80.41740 | 36137 ft | 384 kts | 214° |
| 2026-05-04 01:46 | 32.24520 | -80.44229 | 36100 ft | 384 kts | 214° |
| 2026-05-04 01:46 | 32.19810 | -80.47199 | 36114 ft | 383 kts | 214° |
| 2026-05-04 01:47 | 32.15104 | -80.50150 | 36119 ft | 383 kts | 214° |
| 2026-05-04 01:47 | 32.10396 | -80.53102 | 36123 ft | 383 kts | 214° |
| 2026-05-04 01:48 | 32.05696 | -80.56064 | 36137 ft | 383 kts | 214° |
| 2026-05-04 01:48 | 32.00990 | -80.59024 | 36130 ft | 384 kts | 214° |
| 2026-05-04 01:49 | 31.96271 | -80.61967 | 36094 ft | 384 kts | 214° |
| 2026-05-04 01:49 | 31.91551 | -80.64913 | 36125 ft | 384 kts | 214° |
| 2026-05-04 01:50 | 31.86831 | -80.67864 | 36128 ft | 384 kts | 214° |
| 2026-05-04 01:50 | 31.82103 | -80.70815 | 36135 ft | 384 kts | 214° |
| 2026-05-04 01:51 | 31.77347 | -80.73772 | 36138 ft | 384 kts | 214° |
| 2026-05-04 01:51 | 31.72624 | -80.76714 | 36100 ft | 384 kts | 215° |
| 2026-05-04 01:52 | 31.67909 | -80.79655 | 36113 ft | 384 kts | 214° |
| 2026-05-04 01:52 | 31.63185 | -80.82574 | 36131 ft | 384 kts | 214° |
| 2026-05-04 01:53 | 31.58460 | -80.85501 | 36141 ft | 384 kts | 214° |
| 2026-05-04 01:53 | 31.53744 | -80.88431 | 36145 ft | 384 kts | 214° |
| 2026-05-04 01:54 | 31.49018 | -80.91352 | 36169 ft | 384 kts | 214° |
| 2026-05-04 01:54 | 31.44285 | -80.94273 | 36128 ft | 385 kts | 214° |
| 2026-05-04 01:55 | 31.39551 | -80.97194 | 36143 ft | 385 kts | 214° |
| 2026-05-04 01:55 | 31.34814 | -81.00119 | 36147 ft | 385 kts | 214° |
| 2026-05-04 01:56 | 31.30072 | -81.03038 | 36149 ft | 385 kts | 214° |
| 2026-05-04 01:56 | 31.25154 | -81.05604 | 36149 ft | 396 kts | 203° |
| 2026-05-04 01:57 | 31.22402 | -81.06160 | 36150 ft | 408 kts | 193° |
| 2026-05-04 01:57 | 31.19540 | -81.06241 | 36098 ft | 412 kts | 191° |
| 2026-05-04 01:57 | 31.13757 | -81.06337 | 36112 ft | 413 kts | 191° |
| 2026-05-04 01:58 | 31.08018 | -81.06457 | 36122 ft | 413 kts | 191° |
| 2026-05-04 01:58 | 31.02275 | -81.06587 | 36130 ft | 413 kts | 191° |
| 2026-05-04 01:59 | 30.96535 | -81.06710 | 36141 ft | 413 kts | 191° |
| 2026-05-04 01:59 | 30.90788 | -81.06825 | 36115 ft | 413 kts | 191° |
| 2026-05-04 02:00 | 30.85048 | -81.06938 | 36135 ft | 412 kts | 192° |
| 2026-05-04 02:00 | 30.79309 | -81.07059 | 36146 ft | 412 kts | 192° |
| 2026-05-04 02:01 | 30.73571 | -81.07184 | 36147 ft | 412 kts | 192° |
| 2026-05-04 02:01 | 30.67836 | -81.07304 | 36154 ft | 412 kts | 191° |
| 2026-05-04 02:02 | 30.62099 | -81.07413 | 36112 ft | 411 kts | 192° |
| 2026-05-04 02:02 | 30.56404 | -81.07687 | 36130 ft | 408 kts | 194° |
| 2026-05-04 02:03 | 30.50740 | -81.08086 | 36142 ft | 408 kts | 194° |
| 2026-05-04 02:03 | 30.45033 | -81.08474 | 36149 ft | 408 kts | 194° |
| 2026-05-04 02:04 | 30.39361 | -81.08821 | 36151 ft | 408 kts | 194° |
| 2026-05-04 02:04 | 30.33685 | -81.09151 | 36151 ft | 408 kts | 194° |
| 2026-05-04 02:05 | 30.28010 | -81.09480 | 36152 ft | 408 kts | 194° |
| 2026-05-04 02:05 | 30.22346 | -81.09824 | 36152 ft | 408 kts | 194° |
| 2026-05-04 02:06 | 30.16673 | -81.10167 | 36152 ft | 408 kts | 194° |
| 2026-05-04 02:06 | 30.11004 | -81.10501 | 36154 ft | 408 kts | 194° |
| 2026-05-04 02:07 | 30.05343 | -81.10842 | 36123 ft | 407 kts | 194° |
| 2026-05-04 02:07 | 29.99692 | -81.11183 | 36142 ft | 407 kts | 194° |
| 2026-05-04 02:08 | 29.94001 | -81.11518 | 36152 ft | 406 kts | 194° |
| 2026-05-04 02:08 | 29.88360 | -81.11853 | 36157 ft | 406 kts | 194° |
| 2026-05-04 02:09 | 29.82663 | -81.11898 | 36149 ft | 421 kts | 184° |
| 2026-05-04 02:09 | 29.79751 | -81.11164 | 36111 ft | 438 kts | 174° |
| 2026-05-04 02:09 | 29.76878 | -81.09847 | 36114 ft | 447 kts | 169° |
| 2026-05-04 02:10 | 29.71161 | -81.07019 | 36121 ft | 447 kts | 169° |
| 2026-05-04 02:10 | 29.65441 | -81.04198 | 36121 ft | 447 kts | 169° |
| 2026-05-04 02:11 | 29.59725 | -81.01398 | 36118 ft | 447 kts | 170° |
| 2026-05-04 02:11 | 29.53960 | -80.98585 | 36121 ft | 447 kts | 170° |
| 2026-05-04 02:12 | 29.48241 | -80.95797 | 36124 ft | 447 kts | 171° |
| 2026-05-04 02:12 | 29.42525 | -80.93012 | 36129 ft | 446 kts | 171° |
| 2026-05-04 02:13 | 29.36811 | -80.90227 | 36115 ft | 445 kts | 171° |
| 2026-05-04 02:13 | 29.31121 | -80.87457 | 36130 ft | 444 kts | 171° |
| 2026-05-04 02:14 | 29.25436 | -80.84700 | 36142 ft | 443 kts | 171° |
| 2026-05-04 02:14 | 29.19770 | -80.81951 | 36093 ft | 442 kts | 172° |
| 2026-05-04 02:15 | 29.14109 | -80.79213 | 36121 ft | 441 kts | 172° |
| 2026-05-04 02:15 | 29.08457 | -80.76477 | 36127 ft | 441 kts | 172° |
| 2026-05-04 02:16 | 29.02811 | -80.73743 | 36126 ft | 440 kts | 172° |
| 2026-05-04 02:16 | 28.97168 | -80.71017 | 36123 ft | 440 kts | 172° |
| 2026-05-04 02:17 | 28.91519 | -80.68396 | 36049 ft | 437 kts | 173° |
| 2026-05-04 02:17 | 28.86765 | -80.66302 | 36096 ft | 437 kts | 174° |
| 2026-05-04 02:18 | 28.81082 | -80.63809 | 36098 ft | 438 kts | 173° |
| 2026-05-04 02:18 | 28.75405 | -80.61290 | 36096 ft | 438 kts | 173° |
| 2026-05-04 02:19 | 28.69738 | -80.58756 | 36089 ft | 437 kts | 173° |
| 2026-05-04 02:19 | 28.64079 | -80.56234 | 36079 ft | 437 kts | 173° |
| 2026-05-04 02:20 | 28.58416 | -80.53712 | 36022 ft | 438 kts | 173° |
| 2026-05-04 02:20 | 28.52750 | -80.51190 | 36046 ft | 437 kts | 173° |
| 2026-05-04 02:21 | 28.47080 | -80.48676 | 35830 ft | 438 kts | 173° |
| 2026-05-04 02:21 | 28.44243 | -80.47415 | 35590 ft | 437 kts | 173° |
| 2026-05-04 02:21 | 28.41407 | -80.46155 | 35357 ft | 437 kts | 172° |
| 2026-05-04 02:22 | 28.38572 | -80.44897 | 35120 ft | 437 kts | 172° |
| 2026-05-04 02:22 | 28.35744 | -80.43643 | 34881 ft | 437 kts | 172° |
| 2026-05-04 02:22 | 28.32906 | -80.42389 | 34658 ft | 437 kts | 172° |
| 2026-05-04 02:22 | 28.30070 | -80.41136 | 34376 ft | 439 kts | 171° |
| 2026-05-04 02:23 | 28.27214 | -80.39874 | 34149 ft | 440 kts | 171° |
| 2026-05-04 02:23 | 28.24359 | -80.38613 | 33897 ft | 441 kts | 171° |
| 2026-05-04 02:23 | 28.21499 | -80.37352 | 33634 ft | 442 kts | 171° |
| 2026-05-04 02:23 | 28.18628 | -80.36089 | 33373 ft | 443 kts | 171° |
| 2026-05-04 02:24 | 28.15713 | -80.34806 | 33107 ft | 444 kts | 171° |
| 2026-05-04 02:24 | 28.12826 | -80.33535 | 32857 ft | 446 kts | 170° |
| 2026-05-04 02:24 | 28.09969 | -80.32277 | 32601 ft | 447 kts | 170° |
| 2026-05-04 02:24 | 28.07024 | -80.31016 | 32354 ft | 446 kts | 171° |
| 2026-05-04 02:25 | 28.04099 | -80.29841 | 32114 ft | 446 kts | 172° |
| 2026-05-04 02:25 | 28.01154 | -80.28708 | 31813 ft | 447 kts | 172° |
| 2026-05-04 02:25 | 27.98193 | -80.27591 | 31569 ft | 450 kts | 172° |
| 2026-05-04 02:25 | 27.95223 | -80.26469 | 31324 ft | 451 kts | 172° |
| 2026-05-04 02:26 | 27.92240 | -80.25330 | 31090 ft | 453 kts | 171° |
| 2026-05-04 02:26 | 27.89250 | -80.24174 | 30855 ft | 455 kts | 171° |
| 2026-05-04 02:26 | 27.86251 | -80.23005 | 30622 ft | 456 kts | 171° |
| 2026-05-04 02:26 | 27.83250 | -80.21828 | 30391 ft | 458 kts | 171° |
| 2026-05-04 02:27 | 27.80244 | -80.20646 | 30167 ft | 459 kts | 171° |
| 2026-05-04 02:27 | 27.77219 | -80.19459 | 29892 ft | 460 kts | 171° |
| 2026-05-04 02:27 | 27.74200 | -80.18280 | 29617 ft | 460 kts | 171° |
| 2026-05-04 02:27 | 27.71170 | -80.17101 | 29313 ft | 461 kts | 171° |
| 2026-05-04 02:28 | 27.68132 | -80.15924 | 29014 ft | 462 kts | 170° |
| 2026-05-04 02:28 | 27.65100 | -80.14748 | 28753 ft | 462 kts | 170° |
| 2026-05-04 02:28 | 27.62048 | -80.13566 | 28489 ft | 462 kts | 170° |
| 2026-05-04 02:28 | 27.58980 | -80.12352 | 28229 ft | 462 kts | 169° |
| 2026-05-04 02:29 | 27.55960 | -80.11117 | 27972 ft | 461 kts | 169° |
| 2026-05-04 02:29 | 27.52961 | -80.09865 | 27718 ft | 460 kts | 168° |
| 2026-05-04 02:29 | 27.49963 | -80.08601 | 27464 ft | 458 kts | 168° |
| 2026-05-04 02:29 | 27.46983 | -80.07348 | 27207 ft | 456 kts | 168° |
| 2026-05-04 02:30 | 27.44013 | -80.06112 | 26959 ft | 454 kts | 169° |
| 2026-05-04 02:30 | 27.41051 | -80.04891 | 26695 ft | 452 kts | 169° |
| 2026-05-04 02:30 | 27.38103 | -80.03697 | 26474 ft | 449 kts | 170° |
| 2026-05-04 02:30 | 27.35140 | -80.02634 | 26222 ft | 444 kts | 172° |
| 2026-05-04 02:31 | 27.32175 | -80.01704 | 25981 ft | 438 kts | 174° |
| 2026-05-04 02:31 | 27.29274 | -80.00859 | 25741 ft | 422 kts | 175° |
| 2026-05-04 02:31 | 27.26481 | -80.00063 | 25504 ft | 408 kts | 175° |
| 2026-05-04 02:31 | 27.23769 | -79.99251 | 25272 ft | 400 kts | 174° |
| 2026-05-04 02:32 | 27.21104 | -79.98361 | 25040 ft | 399 kts | 172° |
| 2026-05-04 02:32 | 27.18472 | -79.97418 | 24811 ft | 398 kts | 172° |
| 2026-05-04 02:32 | 27.15841 | -79.96446 | 24404 ft | 396 kts | 171° |
| 2026-05-04 02:32 | 27.13239 | -79.95476 | 23867 ft | 393 kts | 171° |
| 2026-05-04 02:33 | 27.10619 | -79.94504 | 23239 ft | 390 kts | 171° |
| 2026-05-04 02:33 | 27.08047 | -79.93559 | 22737 ft | 388 kts | 171° |
| 2026-05-04 02:33 | 27.05492 | -79.92612 | 22208 ft | 387 kts | 170° |
| 2026-05-04 02:33 | 27.02956 | -79.91619 | 21681 ft | 385 kts | 169° |
| 2026-05-04 02:34 | 27.00442 | -79.90598 | 21159 ft | 383 kts | 168° |
| 2026-05-04 02:34 | 26.97952 | -79.89571 | 20639 ft | 381 kts | 168° |
| 2026-05-04 02:34 | 26.95478 | -79.88547 | 20265 ft | 374 kts | 168° |
| 2026-05-04 02:34 | 26.93057 | -79.87546 | 19848 ft | 365 kts | 168° |
| 2026-05-04 02:35 | 26.90692 | -79.86576 | 19132 ft | 359 kts | 168° |
| 2026-05-04 02:35 | 26.88356 | -79.85632 | 18645 ft | 357 kts | 168° |
| 2026-05-04 02:35 | 26.86021 | -79.84696 | 18137 ft | 354 kts | 168° |
| 2026-05-04 02:35 | 26.83713 | -79.83776 | 17578 ft | 352 kts | 168° |
| 2026-05-04 02:36 | 26.81396 | -79.82851 | 17106 ft | 352 kts | 167° |
| 2026-05-04 02:36 | 26.79099 | -79.81932 | 16621 ft | 350 kts | 167° |
| 2026-05-04 02:36 | 26.76810 | -79.81017 | 16140 ft | 349 kts | 167° |
| 2026-05-04 02:36 | 26.74523 | -79.80101 | 15672 ft | 348 kts | 166° |
| 2026-05-04 02:37 | 26.72224 | -79.79309 | 15190 ft | 343 kts | 174° |
| 2026-05-04 02:37 | 26.69892 | -79.79069 | 14923 ft | 328 kts | 187° |
| 2026-05-04 02:37 | 26.67651 | -79.79351 | 14686 ft | 315 kts | 198° |
| 2026-05-04 02:37 | 26.65587 | -79.80072 | 14272 ft | 306 kts | 205° |
| 2026-05-04 02:38 | 26.63595 | -79.80886 | 13516 ft | 304 kts | 205° |
| 2026-05-04 02:38 | 26.61623 | -79.81690 | 12987 ft | 300 kts | 205° |
| 2026-05-04 02:38 | 26.59665 | -79.82492 | 12577 ft | 299 kts | 205° |
| 2026-05-04 02:38 | 26.57696 | -79.83297 | 12165 ft | 297 kts | 204° |
| 2026-05-04 02:39 | 26.55753 | -79.84090 | 11750 ft | 296 kts | 204° |
| 2026-05-04 02:39 | 26.53854 | -79.84904 | 11333 ft | 287 kts | 206° |
| 2026-05-04 02:39 | 26.52029 | -79.85750 | 10940 ft | 283 kts | 207° |
| 2026-05-04 02:39 | 26.50230 | -79.86613 | 10571 ft | 281 kts | 207° |
| 2026-05-04 02:40 | 26.48439 | -79.87478 | 10203 ft | 280 kts | 207° |
| 2026-05-04 02:40 | 26.46647 | -79.88339 | 9816 ft | 280 kts | 207° |
| 2026-05-04 02:40 | 26.44857 | -79.89192 | 9393 ft | 279 kts | 207° |
| 2026-05-04 02:40 | 26.43053 | -79.90043 | 9014 ft | 277 kts | 206° |
| 2026-05-04 02:41 | 26.41285 | -79.90874 | 8640 ft | 275 kts | 206° |
| 2026-05-04 02:41 | 26.39549 | -79.91689 | 8275 ft | 273 kts | 206° |
| 2026-05-04 02:41 | 26.37782 | -79.92575 | 7848 ft | 270 kts | 212° |
| 2026-05-04 02:41 | 26.36159 | -79.93618 | 7771 ft | 270 kts | 213° |
| 2026-05-04 02:42 | 26.34533 | -79.94674 | 7595 ft | 270 kts | 213° |
| 2026-05-04 02:42 | 26.32915 | -79.95728 | 7433 ft | 269 kts | 213° |
| 2026-05-04 02:42 | 26.31297 | -79.96776 | 7255 ft | 269 kts | 213° |
| 2026-05-04 02:42 | 26.29680 | -79.97818 | 7072 ft | 267 kts | 213° |
| 2026-05-04 02:43 | 26.28075 | -79.98850 | 6668 ft | 266 kts | 212° |
| 2026-05-04 02:43 | 26.26475 | -79.99879 | 6252 ft | 265 kts | 213° |
| 2026-05-04 02:43 | 26.24858 | -80.00919 | 5816 ft | 264 kts | 212° |
| 2026-05-04 02:43 | 26.23266 | -80.01942 | 5388 ft | 264 kts | 212° |
| 2026-05-04 02:44 | 26.21678 | -80.02962 | 4949 ft | 264 kts | 212° |
| 2026-05-04 02:44 | 26.20098 | -80.03978 | 4547 ft | 261 kts | 213° |
| 2026-05-04 02:44 | 26.18692 | -80.05231 | 4171 ft | 257 kts | 228° |
| 2026-05-04 02:44 | 26.17697 | -80.06811 | 4334 ft | 240 kts | 244° |
| 2026-05-04 02:45 | 26.17284 | -80.07910 | 5034 ft | 227 kts | 251° |
| 2026-05-04 02:45 | 26.16758 | -80.09645 | 5682 ft | 249 kts | 251° |
| 2026-05-04 02:45 | 26.16177 | -80.11534 | 5919 ft | 261 kts | 251° |
| 2026-05-04 02:45 | 26.15588 | -80.13445 | 5999 ft | 262 kts | 251° |
| 2026-05-04 02:46 | 26.15097 | -80.15372 | 5998 ft | 252 kts | 261° |
| 2026-05-04 02:46 | 26.15015 | -80.17234 | 5874 ft | 230 kts | 269° |
| 2026-05-04 02:46 | 26.15029 | -80.18959 | 5554 ft | 218 kts | 269° |
| 2026-05-04 02:46 | 26.15039 | -80.20656 | 5093 ft | 215 kts | 269° |
| 2026-05-04 02:47 | 26.15045 | -80.22295 | 4593 ft | 214 kts | 269° |
| 2026-05-04 02:47 | 26.15053 | -80.23953 | 4117 ft | 214 kts | 269° |
| 2026-05-04 02:47 | 26.15061 | -80.25630 | 4007 ft | 215 kts | 269° |
| 2026-05-04 02:47 | 26.15067 | -80.27294 | 4007 ft | 215 kts | 269° |
| 2026-05-04 02:48 | 26.15072 | -80.28963 | 4009 ft | 216 kts | 269° |
| 2026-05-04 02:48 | 26.15086 | -80.30633 | 4009 ft | 216 kts | 270° |
| 2026-05-04 02:48 | 26.15099 | -80.32300 | 4010 ft | 216 kts | 269° |
| 2026-05-04 02:48 | 26.15115 | -80.33973 | 4011 ft | 216 kts | 270° |
| 2026-05-04 02:49 | 26.15129 | -80.35647 | 4010 ft | 216 kts | 269° |
| 2026-05-04 02:49 | 26.15145 | -80.37319 | 4011 ft | 216 kts | 270° |
| 2026-05-04 02:49 | 26.15160 | -80.38995 | 4011 ft | 216 kts | 270° |
| 2026-05-04 02:49 | 26.15175 | -80.40667 | 4011 ft | 216 kts | 269° |
| 2026-05-04 02:50 | 26.14915 | -80.42291 | 4011 ft | 215 kts | 243° |
| 2026-05-04 02:50 | 26.13897 | -80.43485 | 3920 ft | 215 kts | 210° |
| 2026-05-04 02:50 | 26.12456 | -80.43860 | 3482 ft | 218 kts | 176° |
| 2026-05-04 02:50 | 26.11038 | -80.43258 | 3067 ft | 222 kts | 148° |
| 2026-05-04 02:51 | 26.09800 | -80.42230 | 3011 ft | 224 kts | 143° |
| 2026-05-04 02:51 | 26.08651 | -80.41049 | 3016 ft | 227 kts | 128° |
| 2026-05-04 02:51 | 26.07943 | -80.39490 | 3011 ft | 225 kts | 105° |
| 2026-05-04 02:51 | 26.07791 | -80.37808 | 3007 ft | 214 kts | 90° |
| 2026-05-04 02:52 | 26.07787 | -80.36196 | 3006 ft | 204 kts | 91° |
| 2026-05-04 02:52 | 26.07781 | -80.34643 | 3016 ft | 199 kts | 91° |
| 2026-05-04 02:52 | 26.07775 | -80.33093 | 2867 ft | 191 kts | 90° |
| 2026-05-04 02:52 | 26.07768 | -80.31676 | 2623 ft | 187 kts | 91° |
| 2026-05-04 02:53 | 26.07762 | -80.30240 | 2383 ft | 183 kts | 91° |
| 2026-05-04 02:53 | 26.07756 | -80.28832 | 2148 ft | 181 kts | 90° |
| 2026-05-04 02:53 | 26.07749 | -80.27442 | 1914 ft | 179 kts | 90° |
| 2026-05-04 02:53 | 26.07743 | -80.26069 | 1681 ft | 177 kts | 90° |
| 2026-05-04 02:54 | 26.07736 | -80.24710 | 1436 ft | 170 kts | 90° |
| 2026-05-04 02:54 | 26.07717 | -80.23479 | 1273 ft | 150 kts | 91° |
| 2026-05-04 02:54 | 26.07680 | -80.22355 | 1068 ft | 141 kts | 88° |
| 2026-05-04 02:54 | 26.07734 | -80.21285 | 895 ft | 138 kts | 91° |
| 2026-05-04 02:55 | 26.07713 | -80.18961 | 531 ft | 151 kts | 89° |
| 2026-05-04 02:55 | 26.07705 | -80.17851 | 324 ft | 137 kts | 88° |
| 2026-05-04 02:55 | 26.07687 | -80.16817 | 147 ft | 128 kts | 87° |
| 2026-05-04 02:56 | 26.07693 | -80.15740 | 33 ft | 133 kts | 88° |
| 2026-05-04 02:56 | 26.07678 | -80.14966 | 20 ft | 49 kts | 92° |
| 2026-05-04 02:56 | 26.07637 | -80.14646 | 27 ft | 29 kts | 116° |
| 2026-05-04 02:56 | 26.07551 | -80.14535 | 28 ft | 11 kts | 124° |
| 2026-05-04 02:57 | 26.07487 | -80.14499 | 29 ft | 9 kts | 148° |
| 2026-05-04 02:57 | 26.07450 | -80.14437 | 25 ft | 10 kts | 118° |
| 2026-05-04 02:57 | 26.07427 | -80.14399 | 23 ft | 1 kts | 135° |
| 2026-05-04 02:57 | 26.07419 | -80.14397 | 23 ft | 3 kts | 160° |
| 2026-05-04 02:58 | 26.07398 | -80.14395 | 23 ft | 0 kts | 175° |